Time;durP1;ratioP1;P1;durP2;ratioP2;P2;SDS_P1;SDS_P2;PMS_P1;PMS_P2;Temp;Humidity;BMP_temperature;BMP_pressure;BME280_temperature;BME280_humidity;BME280_pressure;Samples;Min_cycle;Max_cycle;Signal;HPM_P1;HPM_P2
2022/10/01 00:01:16;;;;;;;5.60;1.05;;;;;;;12.93;77.52;98416.22;5003647;28;20050;-40
2022/10/01 00:03:43;;;;;;;6.00;1.40;;;;;;;12.90;78.34;98411.19;5003746;28;20050;-40
2022/10/01 00:06:15;;;;;;;8.48;1.05;;;;;;;12.88;77.51;98407.78;5003887;28;20224;-41
2022/10/01 00:08:44;;;;;;;5.28;1.30;;;;;;;12.84;78.50;98415.69;5000147;28;20125;-40
2022/10/01 00:11:14;;;;;;;6.72;0.90;;;;;;;12.82;78.05;98422.72;5004015;28;20092;-39
2022/10/01 00:13:42;;;;;;;8.93;1.63;;;;;;;12.79;77.77;98428.00;5003144;28;20703;-39
2022/10/01 00:16:12;;;;;;;8.35;1.50;;;;;;;12.77;78.34;98429.81;5031972;28;20060;-39
2022/10/01 00:18:41;;;;;;;6.85;2.17;;;;;;;12.76;78.46;98433.31;5033865;28;20437;-39
2022/10/01 00:21:10;;;;;;;6.10;1.77;;;;;;;12.73;78.13;98438.63;5001256;28;20408;-39
2022/10/01 00:23:37;;;;;;;7.85;1.67;;;;;;;12.69;77.63;98445.69;5003230;28;20617;-40
2022/10/01 00:26:17;;;;;;;4.47;1.02;;;;;;;12.67;78.02;98439.69;5003862;28;20046;-41
2022/10/01 00:28:45;;;;;;;4.28;1.45;;;;;;;12.65;78.00;98440.66;5017269;28;20045;-41
2022/10/01 00:31:14;;;;;;;9.02;1.40;;;;;;;12.63;77.68;98450.28;4999648;28;20140;-41
2022/10/01 00:33:41;;;;;;;7.57;1.20;;;;;;;12.62;78.37;98446.81;5002000;28;20046;-40
2022/10/01 00:36:09;;;;;;;12.80;1.73;;;;;;;12.61;77.58;98450.34;5003327;28;20143;-41
2022/10/01 00:38:39;;;;;;;7.97;1.55;;;;;;;12.60;78.50;98454.66;5003133;28;20086;-39
2022/10/01 00:41:06;;;;;;;5.13;1.13;;;;;;;12.58;78.69;98459.09;4987357;28;20046;-42
2022/10/01 00:43:41;;;;;;;11.07;1.15;;;;;;;12.56;77.40;98458.28;4999725;28;20050;-39
2022/10/01 00:46:33;;;;;;;7.40;1.17;;;;;;;12.47;77.75;98464.66;5003109;28;20050;-40
2022/10/01 00:49:06;;;;;;;5.80;1.75;;;;;;;12.51;77.39;98465.41;5000869;28;20141;-40
2022/10/01 00:51:38;;;;;;;5.07;1.52;;;;;;;12.49;78.58;98467.19;4997280;28;20066;-40
2022/10/01 00:54:12;;;;;;;6.70;0.80;;;;;;;12.47;78.43;98466.41;4991340;28;20129;-41
2022/10/01 00:56:40;;;;;;;7.78;1.20;;;;;;;12.47;78.47;98469.03;4990222;28;20042;-41
2022/10/01 00:59:07;;;;;;;6.15;1.00;;;;;;;12.45;77.77;98465.63;4991417;28;20129;-41
2022/10/01 01:01:35;;;;;;;6.50;1.45;;;;;;;12.45;77.79;98470.81;4990784;28;20042;-40
2022/10/01 01:04:15;;;;;;;6.68;1.63;;;;;;;12.42;77.79;98476.09;4990835;28;20042;-41
2022/10/01 01:06:54;;;;;;;5.25;0.98;;;;;;;12.40;78.59;98468.38;4988461;28;20602;-42
2022/10/01 01:09:25;;;;;;;6.65;1.20;;;;;;;12.39;78.44;98463.25;4989528;28;20116;-41
2022/10/01 01:12:00;;;;;;;10.68;1.10;;;;;;;12.38;78.55;98469.34;4987079;28;20121;-39
2022/10/01 01:14:39;;;;;;;10.02;1.40;;;;;;;12.36;78.63;98477.16;4990634;28;20093;-39
2022/10/01 01:17:11;;;;;;;3.38;1.15;;;;;;;12.33;77.91;98483.31;4983576;28;20073;-39
2022/10/01 01:22:20;;;;;;;7.55;1.73;;;;;;;12.33;78.24;98488.50;5034459;27;20405;-39
2022/10/01 01:25:03;;;;;;;6.43;2.33;;;;;;;12.28;78.29;98490.44;5022836;28;20148;-40
2022/10/01 01:30:14;;;;;;;4.68;0.73;;;;;;;12.28;77.75;98495.63;5085786;27;20620;-39
2022/10/01 01:32:54;;;;;;;5.70;0.95;;;;;;;12.27;78.62;98504.31;5038968;28;20140;-40
2022/10/01 01:35:26;;;;;;;4.93;0.68;;;;;;;12.25;78.59;98500.91;5038124;28;20127;-44
2022/10/01 01:37:57;;;;;;;5.45;0.88;;;;;;;12.26;78.60;98502.59;5050288;28;20147;-41
2022/10/01 01:40:25;;;;;;;10.30;1.10;;;;;;;12.25;77.28;98503.50;5039495;28;20064;-39
2022/10/01 01:42:54;;;;;;;9.65;1.67;;;;;;;12.23;77.55;98515.72;5035833;28;21003;-41
2022/10/01 01:45:27;;;;;;;5.70;1.17;;;;;;;12.22;77.29;98519.19;5035924;28;20048;-40
2022/10/01 01:47:57;;;;;;;6.93;1.23;;;;;;;12.20;77.52;98515.81;5036623;28;20040;-41
2022/10/01 01:50:25;;;;;;;;;;;;;;;12.03;77.77;98512.00;5039920;28;20053;-41
2022/10/01 01:52:53;;;;;;;13.18;1.92;;;;;;;12.13;78.63;98517.75;5038313;28;20002;-41
2022/10/01 01:55:23;;;;;;;6.07;1.30;;;;;;;12.15;77.80;98520.28;5040499;28;20560;-40
2022/10/01 01:57:50;;;;;;;4.90;1.25;;;;;;;12.13;77.79;98519.50;5037867;28;20487;-38
2022/10/01 02:00:22;;;;;;;10.15;0.75;;;;;;;12.11;78.05;98518.72;5030640;28;20131;-40
2022/10/01 02:02:52;;;;;;;7.13;0.73;;;;;;;12.10;78.52;98527.41;5033103;28;20499;-39
2022/10/01 02:05:24;;;;;;;2.90;0.63;;;;;;;12.07;78.31;98524.03;5041397;28;20048;-40
2022/10/01 02:13:49;;;;;;;5.75;0.73;;;;;;;11.99;78.22;98523.38;5002559;28;20721;-39
2022/10/01 02:27:11;;;;;;;8.93;1.20;;;;;;;11.93;77.60;98547.78;5049531;27;20392;-40
2022/10/01 02:29:39;;;;;;;6.53;1.00;;;;;;;11.93;77.41;98549.53;5013834;28;20141;-40
2022/10/01 02:32:08;;;;;;;5.00;1.25;;;;;;;11.91;77.77;98548.72;4997127;28;20074;-40
2022/10/01 02:34:36;;;;;;;3.75;0.75;;;;;;;11.89;77.71;98558.31;5002792;28;20498;-39
2022/10/01 02:37:05;;;;;;;8.93;0.80;;;;;;;11.89;77.71;98555.72;4999851;28;20042;-40
2022/10/01 02:39:33;;;;;;;6.47;1.15;;;;;;;11.87;78.06;98557.50;4995959;28;20046;-42
2022/10/01 02:42:03;;;;;;;5.25;1.00;;;;;;;11.86;78.27;98561.00;4989579;28;20070;-40
2022/10/01 02:44:36;;;;;;;;;;;;;;;11.67;77.75;98556.41;4986002;28;20160;-42
2022/10/01 02:47:27;;;;;;;7.35;1.20;;;;;;;11.71;78.35;98563.19;5007836;28;19925;-40
2022/10/01 02:49:53;;;;;;;5.68;0.80;;;;;;;11.73;78.44;98566.59;4996979;28;20088;-41
2022/10/01 02:57:36;;;;;;;8.32;1.35;;;;;;;11.70;77.47;98567.53;5036788;27;20407;-39
2022/10/01 03:00:07;;;;;;;10.43;0.98;;;;;;;11.69;78.57;98571.00;4982756;28;20173;-41
2022/10/01 03:02:34;;;;;;;10.98;1.05;;;;;;;11.68;78.21;98578.84;4975978;28;20176;-42
2022/10/01 03:05:01;;;;;;;5.57;0.80;;;;;;;11.66;78.49;98572.88;4982155;28;20054;-39
2022/10/01 03:07:30;;;;;;;5.70;0.63;;;;;;;11.65;77.76;98584.97;5001724;28;20046;-40
2022/10/01 03:09:57;;;;;;;4.85;0.70;;;;;;;11.64;78.60;98590.19;4999399;28;20080;-39
2022/10/01 03:12:23;;;;;;;11.75;0.95;;;;;;;11.62;77.69;98587.66;4997022;28;20047;-38
2022/10/01 03:14:50;;;;;;;7.57;1.45;;;;;;;11.62;77.43;98599.78;4995264;28;20058;-39
2022/10/01 03:17:17;;;;;;;5.70;1.40;;;;;;;11.61;78.27;98600.66;4982308;28;20049;-41
2022/10/01 03:19:44;;;;;;;6.72;0.88;;;;;;;11.60;77.97;98596.38;4999452;28;20108;-39
2022/10/01 03:22:13;;;;;;;5.55;0.70;;;;;;;11.60;78.36;98612.78;4985798;28;20072;-39
2022/10/01 03:24:40;;;;;;;6.53;0.80;;;;;;;11.59;77.57;98618.03;5005422;28;20134;-41
2022/10/01 03:27:06;;;;;;;6.40;0.77;;;;;;;11.57;77.73;98624.13;4979809;28;20081;-38
2022/10/01 03:29:33;;;;;;;7.88;0.88;;;;;;;11.59;77.59;98620.63;4981451;28;20130;-40
2022/10/01 03:31:59;;;;;;;10.80;0.95;;;;;;;11.60;78.56;98625.75;4981999;28;20129;-42
2022/10/01 03:34:26;;;;;;;5.55;1.05;;;;;;;11.62;78.25;98628.31;4975452;28;20433;-39
2022/10/01 03:36:53;;;;;;;8.23;1.15;;;;;;;11.64;77.57;98629.09;4979334;28;20054;-40
2022/10/01 03:39:19;;;;;;;6.38;0.80;;;;;;;11.66;77.44;98632.50;4981733;28;20130;-40
2022/10/01 03:41:46;;;;;;;8.40;1.88;;;;;;;11.67;77.77;98640.25;4978537;28;20086;-41
2022/10/01 03:44:12;;;;;;;8.50;0.75;;;;;;;11.66;78.26;98637.69;4980497;28;20126;-40
2022/10/01 03:46:39;;;;;;;5.63;0.82;;;;;;;11.64;78.36;98644.66;4980402;28;20082;-41
2022/10/01 03:49:06;;;;;;;7.80;0.80;;;;;;;11.63;77.90;98650.75;4979438;28;20042;-41
2022/10/01 03:51:32;;;;;;;8.32;1.08;;;;;;;11.62;78.19;98651.66;4982300;28;20122;-42
2022/10/01 03:53:59;;;;;;;8.75;0.63;;;;;;;11.59;77.13;98646.53;4979828;28;20046;-41
2022/10/01 03:56:26;;;;;;;4.50;0.77;;;;;;;11.57;77.07;98668.19;4981251;28;20061;-42
2022/10/01 03:58:53;;;;;;;9.10;1.00;;;;;;;11.54;77.21;98665.69;4981655;28;20074;-41
2022/10/01 04:01:20;;;;;;;7.10;0.80;;;;;;;11.52;77.38;98671.81;4980202;28;20057;-41
2022/10/01 04:03:49;;;;;;;8.10;1.08;;;;;;;11.49;77.63;98677.94;4987425;28;20047;-39
2022/10/01 04:06:15;;;;;;;3.88;0.60;;;;;;;11.46;77.43;98683.22;4980230;28;20070;-39
2022/10/01 04:08:42;;;;;;;19.05;1.73;;;;;;;11.45;77.88;98684.09;4969517;28;20051;-40
2022/10/01 04:11:09;;;;;;;10.02;0.93;;;;;;;11.41;77.95;98685.06;4993201;28;20064;-41
2022/10/01 04:13:36;;;;;;;7.93;0.77;;;;;;;11.39;77.24;98698.06;4963485;28;20137;-41
2022/10/01 04:16:04;;;;;;;7.50;0.93;;;;;;;11.37;78.08;98704.19;4982089;28;20039;-42
2022/10/01 04:18:31;;;;;;;10.40;0.95;;;;;;;11.35;77.17;98703.41;4964830;28;20055;-40
2022/10/01 04:20:58;;;;;;;7.30;0.90;;;;;;;11.31;77.89;98711.25;4970573;28;20082;-39
2022/10/01 04:23:25;;;;;;;5.68;0.63;;;;;;;11.30;77.62;98719.94;4986265;28;20180;-39
2022/10/01 04:25:52;;;;;;;6.93;1.02;;;;;;;11.27;77.31;98709.63;4963010;28;20061;-40
2022/10/01 04:28:19;;;;;;;6.00;0.40;;;;;;;11.26;77.80;98710.53;4970553;28;20125;-42
2022/10/01 04:30:45;;;;;;;3.90;1.10;;;;;;;11.25;77.23;98724.38;4973455;28;20526;-40
2022/10/01 04:33:15;;;;;;;6.53;0.70;;;;;;;11.24;77.82;98725.28;4981576;28;20131;-41
2022/10/01 04:35:42;;;;;;;9.35;0.75;;;;;;;11.22;77.56;98715.84;4968219;28;20050;-41
2022/10/01 04:38:14;;;;;;;9.85;0.80;;;;;;;11.22;78.19;98718.44;4986250;28;20050;-41
2022/10/01 04:40:40;;;;;;;10.48;1.05;;;;;;;11.20;77.66;98723.66;4981707;28;20089;-39
2022/10/01 04:43:08;;;;;;;9.63;0.90;;;;;;;11.18;77.53;98720.28;4967384;28;20049;-41
2022/10/01 04:45:36;;;;;;;6.05;1.08;;;;;;;11.16;77.90;98722.03;4967680;28;20054;-39
2022/10/01 04:48:04;;;;;;;9.25;0.90;;;;;;;11.13;78.08;98722.97;4966342;28;20130;-41
2022/10/01 04:50:31;;;;;;;4.97;1.30;;;;;;;11.12;76.99;98736.81;4967458;28;20051;-39
2022/10/01 04:52:58;;;;;;;9.07;1.23;;;;;;;11.10;77.43;98737.72;4988076;28;20050;-40
2022/10/01 04:55:24;;;;;;;9.80;1.10;;;;;;;11.10;77.02;98742.91;4969336;28;20157;-40
2022/10/01 04:57:51;;;;;;;11.30;1.88;;;;;;;11.08;77.71;98744.72;4964571;28;20134;-39
2022/10/01 05:00:20;;;;;;;18.52;1.63;;;;;;;11.08;77.83;98749.91;4968893;28;20085;-41
2022/10/01 05:02:48;;;;;;;9.05;1.20;;;;;;;11.05;78.08;98753.41;4964286;28;20105;-40
2022/10/01 05:05:17;;;;;;;6.80;0.93;;;;;;;11.04;77.92;98760.34;4952551;28;20125;-40
2022/10/01 05:07:44;;;;;;;9.57;1.00;;;;;;;11.04;77.00;98769.84;4965427;28;20133;-40
2022/10/01 05:10:13;;;;;;;10.18;1.10;;;;;;;11.04;77.59;98775.88;4965404;28;20050;-40
2022/10/01 05:12:40;;;;;;;7.43;1.02;;;;;;;11.04;77.96;98778.47;4968600;28;20474;-45
2022/10/01 05:15:08;;;;;;;8.75;1.15;;;;;;;11.04;78.35;98775.88;4966320;28;20050;-40
2022/10/01 05:17:35;;;;;;;6.45;0.70;;;;;;;11.08;77.82;98775.81;4962323;28;20134;-42
2022/10/01 05:20:03;;;;;;;4.97;0.95;;;;;;;11.09;78.24;98782.69;4967232;28;20074;-41
2022/10/01 05:22:30;;;;;;;10.07;0.80;;;;;;;11.09;77.72;98785.28;4976181;28;20054;-41
2022/10/01 05:24:58;;;;;;;11.68;0.80;;;;;;;11.10;77.37;98789.56;4985174;28;20133;-40
2022/10/01 05:27:26;;;;;;;8.00;1.13;;;;;;;11.12;77.71;98790.38;4974966;28;20063;-41
2022/10/01 05:29:53;;;;;;;13.50;2.88;;;;;;;11.12;77.75;98786.06;4963611;28;20727;-40
2022/10/01 05:32:19;;;;;;;19.70;2.95;;;;;;;11.15;77.67;98787.72;4965991;28;20051;-40
2022/10/01 05:34:46;;;;;;;8.00;1.98;;;;;;;11.15;77.77;98793.72;4981597;28;20139;-40
2022/10/01 05:37:18;;;;;;;12.80;2.03;;;;;;;11.15;77.44;98792.91;4971910;28;20050;-43
2022/10/01 05:39:45;;;;;;;12.80;2.95;;;;;;;11.17;78.03;98806.66;4961195;28;20039;-41
2022/10/01 05:42:12;;;;;;;20.25;4.38;;;;;;;11.15;77.40;98805.84;4962023;28;20062;-39
2022/10/01 05:44:44;;;;;;;15.45;3.47;;;;;;;11.14;78.14;98812.78;4963878;28;20130;-42
2022/10/01 05:47:12;;;;;;;20.67;4.03;;;;;;;11.15;78.39;98808.44;4985603;28;20086;-42
2022/10/01 05:49:41;;;;;;;20.27;3.50;;;;;;;11.14;77.51;98806.72;4963123;28;20576;-41
2022/10/01 05:52:09;;;;;;;11.18;2.35;;;;;;;11.14;77.87;98812.78;4961991;28;20043;-42
2022/10/01 05:54:36;;;;;;;10.40;4.43;;;;;;;11.12;78.10;98808.53;4965096;28;20133;-40
2022/10/01 05:57:04;;;;;;;8.30;2.20;;;;;;;11.12;77.73;98814.56;4963299;28;20165;-41
2022/10/01 05:59:30;;;;;;;6.80;2.17;;;;;;;11.12;78.18;98818.88;4970350;28;20082;-40
2022/10/01 06:01:57;;;;;;;7.57;2.40;;;;;;;11.10;77.64;98821.50;4958940;28;20143;-44
2022/10/01 06:04:24;;;;;;;11.05;1.58;;;;;;;11.10;78.26;98828.44;4966186;28;20039;-40
2022/10/01 06:06:52;;;;;;;12.02;2.17;;;;;;;11.08;78.07;98828.47;4963818;28;20126;-41
2022/10/01 06:09:19;;;;;;;8.52;2.40;;;;;;;11.08;77.50;98827.63;4991015;28;20092;-39
2022/10/01 06:11:47;;;;;;;15.18;2.45;;;;;;;11.07;77.83;98836.28;4965418;28;20198;-39
2022/10/01 06:14:15;;;;;;;13.85;3.05;;;;;;;11.04;78.17;98845.84;4971898;28;20099;-43
2022/10/01 06:16:41;;;;;;;8.38;2.10;;;;;;;11.04;77.65;98853.59;4963321;28;20170;-39
2022/10/01 06:19:08;;;;;;;8.02;1.55;;;;;;;11.05;78.19;98854.47;4958895;28;20042;-40
2022/10/01 06:21:35;;;;;;;11.90;1.58;;;;;;;11.04;77.61;98853.59;4961872;28;20050;-40
2022/10/01 06:24:02;;;;;;;8.88;1.25;;;;;;;11.04;77.56;98848.44;4964198;28;20131;-41
2022/10/01 06:26:29;;;;;;;6.13;0.77;;;;;;;11.06;78.50;98858.75;4965089;28;20059;-40
2022/10/01 06:28:55;;;;;;;10.45;1.40;;;;;;;11.05;78.55;98865.66;4959705;28;20069;-40
2022/10/01 06:31:22;;;;;;;11.02;2.25;;;;;;;11.07;78.60;98867.41;4977914;28;20128;-39
2022/10/01 06:33:49;;;;;;;13.07;3.20;;;;;;;11.08;78.43;98869.09;4976749;28;20126;-39
2022/10/01 06:36:15;;;;;;;12.75;4.32;;;;;;;11.10;78.39;98869.88;4961969;28;20482;-41
2022/10/01 06:38:42;;;;;;;18.83;4.28;;;;;;;11.12;78.54;98875.91;4961529;28;20506;-39
2022/10/01 06:41:09;;;;;;;9.10;2.95;;;;;;;11.14;78.07;98874.09;4961829;28;20126;-40
2022/10/01 06:43:35;;;;;;;11.40;2.80;;;;;;;11.16;78.08;98877.53;4981124;28;20141;-42
2022/10/01 06:46:03;;;;;;;15.93;4.75;;;;;;;11.19;77.65;98888.66;4976278;28;20069;-43
2022/10/01 06:48:31;;;;;;;17.17;3.60;;;;;;;11.22;77.59;98890.34;4974730;28;20531;-40
2022/10/01 06:50:58;;;;;;;12.70;3.03;;;;;;;11.25;77.52;98887.66;4964712;28;20101;-38
2022/10/01 06:53:26;;;;;;;12.32;4.63;;;;;;;11.29;77.35;98897.06;4961495;28;20439;-40
2022/10/01 06:55:54;;;;;;;9.40;3.10;;;;;;;11.32;77.61;98898.75;4964305;28;20055;-39
2022/10/01 06:58:25;;;;;;;13.13;3.65;;;;;;;11.36;78.83;98904.69;4977158;28;20566;-40
2022/10/01 07:00:57;;;;;;;15.30;2.83;;;;;;;11.38;77.65;98911.53;4976040;28;20051;-40
2022/10/01 07:03:24;;;;;;;8.35;2.30;;;;;;;11.43;78.10;98906.25;4961634;28;20054;-41
2022/10/01 07:05:51;;;;;;;11.48;1.20;;;;;;;11.47;77.38;98923.44;4962990;28;20065;-40
2022/10/01 07:08:17;;;;;;;16.42;1.92;;;;;;;11.52;77.61;98921.56;4964735;28;20130;-42
2022/10/01 07:10:44;;;;;;;10.68;1.92;;;;;;;11.56;77.84;98933.56;4978583;28;20799;-42
2022/10/01 07:13:15;;;;;;;11.10;1.65;;;;;;;11.65;77.62;98936.84;4970492;28;20190;-40
2022/10/01 07:15:42;;;;;;;14.48;1.80;;;;;;;11.68;78.35;98932.44;4977362;28;20574;-41
2022/10/01 07:18:09;;;;;;;13.27;2.15;;;;;;;11.76;77.51;98934.81;4959618;28;20482;-41
2022/10/01 07:20:39;;;;;;;11.77;1.92;;;;;;;11.83;78.85;98946.72;4961473;28;20049;-41
2022/10/01 07:23:09;;;;;;;11.23;4.88;;;;;;;11.91;78.25;98946.56;4964789;28;20503;-39
2022/10/01 07:25:37;;;;;;;7.50;1.58;;;;;;;11.99;77.54;98951.53;4959495;28;20567;-40
2022/10/01 07:28:06;;;;;;;7.10;2.38;;;;;;;12.07;78.51;98954.84;4957456;28;21101;-40
2022/10/01 07:30:33;;;;;;;11.23;1.98;;;;;;;12.14;78.28;98958.09;4971149;28;20133;-42
2022/10/01 07:32:59;;;;;;;13.02;2.50;;;;;;;12.25;77.94;98964.72;4979505;28;20129;-40
2022/10/01 07:35:27;;;;;;;19.80;2.45;;;;;;;12.32;78.05;98964.53;4983223;28;20181;-42
2022/10/01 07:37:54;;;;;;;12.93;2.20;;;;;;;12.43;77.72;98973.78;4962991;28;20075;-40
2022/10/01 07:40:20;;;;;;;10.80;1.50;;;;;;;12.51;77.46;98969.22;4962282;28;20050;-39
2022/10/01 07:42:55;;;;;;;9.43;1.65;;;;;;;12.62;78.21;98978.44;4975373;28;20129;-39
2022/10/01 07:45:22;;;;;;;10.20;1.73;;;;;;;12.76;78.36;98984.09;4979831;28;20078;-40
2022/10/01 07:47:54;;;;;;;12.02;2.00;;;;;;;12.88;77.26;98987.25;4966989;28;20129;-41
2022/10/01 07:50:22;;;;;;;11.32;2.22;;;;;;;12.96;77.07;98993.06;4967439;28;20161;-42
2022/10/01 07:52:51;;;;;;;9.63;1.17;;;;;;;13.03;77.60;98991.97;4986573;28;20117;-39
2022/10/01 07:55:19;;;;;;;8.32;1.67;;;;;;;13.10;78.00;99003.91;4964199;28;20094;-40
2022/10/01 07:57:55;;;;;;;6.80;1.17;;;;;;;13.18;77.21;99001.09;4967592;28;20137;-43
2022/10/01 08:00:24;;;;;;;7.10;1.63;;;;;;;13.37;77.27;99006.56;4960982;28;20050;-40
2022/10/01 08:02:54;;;;;;;5.72;1.30;;;;;;;13.75;78.05;99006.25;4963500;28;20133;-39
2022/10/01 08:05:24;;;;;;;9.18;1.95;;;;;;;14.26;76.49;99005.47;4988500;28;20046;-40
2022/10/01 08:07:51;;;;;;;9.07;1.60;;;;;;;14.81;76.20;99004.41;4969420;28;20128;-41
2022/10/01 08:10:19;;;;;;;7.82;2.03;;;;;;;15.24;75.38;99014.13;4967457;28;20488;-42
2022/10/01 08:12:46;;;;;;;11.68;2.33;;;;;;;15.50;74.73;99013.09;4978048;28;20081;-39
2022/10/01 08:15:15;;;;;;;13.98;2.38;;;;;;;15.76;74.89;99015.56;4981052;28;20074;-40
2022/10/01 08:17:43;;;;;;;8.57;2.13;;;;;;;16.05;75.24;99021.38;4963345;28;20182;-42
2022/10/01 08:20:12;;;;;;;12.38;2.70;;;;;;;16.65;75.16;99025.78;4964975;28;20150;-41
2022/10/01 08:22:39;;;;;;;8.23;2.30;;;;;;;17.54;73.69;99034.88;4966698;28;20050;-41
2022/10/01 08:25:08;;;;;;;14.60;3.10;;;;;;;18.47;71.25;99045.16;4967672;28;20054;-42
2022/10/01 08:27:35;;;;;;;7.68;2.58;;;;;;;19.33;69.39;99038.06;4971900;28;20047;-41
2022/10/01 08:30:02;;;;;;;5.03;1.45;;;;;;;20.04;66.93;99046.34;5009575;28;20150;-43
2022/10/01 08:32:30;;;;;;;11.07;2.75;;;;;;;20.76;66.50;99057.06;4966384;28;20141;-40
2022/10/01 08:34:57;;;;;;;8.02;1.95;;;;;;;21.47;64.73;99064.16;4996061;28;20053;-42
2022/10/01 08:37:26;;;;;;;9.02;2.28;;;;;;;22.16;62.90;99060.59;4968001;28;20548;-41
2022/10/01 08:39:54;;;;;;;6.82;2.10;;;;;;;22.84;62.85;99066.53;4965529;28;20495;-41
2022/10/01 08:45:19;;;;;;;9.85;2.90;;;;;;;24.05;59.70;99072.09;5085838;27;20405;-42
2022/10/01 08:47:54;;;;;;;8.98;1.77;;;;;;;24.51;59.54;99088.06;5047901;28;20135;-41
2022/10/01 08:53:03;;;;;;;9.52;3.03;;;;;;;25.33;56.47;99088.81;5105832;27;20405;-42
2022/10/01 08:55:35;;;;;;;9.70;2.75;;;;;;;25.70;55.25;99085.03;5064494;28;20076;-46
2022/10/01 08:58:08;;;;;;;9.52;1.58;;;;;;;26.11;54.82;99098.47;5045350;28;20671;-42
2022/10/01 09:00:40;;;;;;;7.00;3.63;;;;;;;26.53;54.51;99092.38;5047611;28;20069;-43
2022/10/01 09:03:12;;;;;;;9.45;3.08;;;;;;;26.88;52.97;99100.09;5045901;28;20428;-43
2022/10/01 09:11:11;;;;;;;4.68;1.10;;;;;;;27.67;48.81;99105.69;5032516;27;20404;-42
2022/10/01 09:19:53;;;;;;;6.68;2.08;;;;;;;28.34;47.00;99113.00;5010585;28;20807;-43
2022/10/01 09:25:26;;;;;;;7.00;1.98;;;;;;;28.57;45.80;99115.34;5004928;28;20413;-43
2022/10/01 09:28:01;;;;;;;6.30;2.40;;;;;;;28.61;45.90;99119.41;5022949;28;20108;-42
2022/10/01 09:30:29;;;;;;;6.47;1.60;;;;;;;28.57;44.55;99115.34;4991784;28;20046;-44
2022/10/01 09:35:51;;;;;;;4.25;0.90;;;;;;;28.64;45.26;99124.44;5079350;27;20390;-44
2022/10/01 09:40:58;;;;;;;5.90;1.48;;;;;;;29.03;43.50;99127.97;5052881;28;20421;-43
2022/10/01 09:43:28;;;;;;;5.80;1.25;;;;;;;29.03;43.79;99128.81;5026262;28;20497;-43
2022/10/01 09:45:56;;;;;;;5.72;1.40;;;;;;;29.19;43.30;99132.66;5020440;28;20152;-45
2022/10/01 09:48:31;;;;;;;9.30;2.85;;;;;;;29.34;43.34;99125.84;5021131;28;20057;-42
2022/10/01 09:51:07;;;;;;;6.05;1.42;;;;;;;29.40;41.82;99135.09;5022168;28;20050;-49
2022/10/01 09:53:40;;;;;;;4.35;1.55;;;;;;;29.48;41.45;99142.34;5017230;28;20517;-47
2022/10/01 09:56:12;;;;;;;7.05;2.70;;;;;;;29.45;40.86;99132.81;5042386;28;20132;-49
2022/10/01 09:58:46;;;;;;;5.72;2.05;;;;;;;29.45;41.62;99130.13;5031784;28;20429;-48
2022/10/01 10:01:20;;;;;;;5.57;0.90;;;;;;;29.59;41.85;99125.31;5049932;28;20532;-53
2022/10/01 10:03:56;;;;;;;6.55;2.45;;;;;;;29.80;41.04;99129.53;5045781;28;20064;-47
2022/10/01 10:06:26;;;;;;;4.78;1.77;;;;;;;29.77;40.33;99130.66;5013153;28;20073;-51
2022/10/01 10:08:56;;;;;;;8.23;1.65;;;;;;;29.73;40.55;99132.81;5010140;28;20042;-48
2022/10/01 10:11:26;;;;;;;5.43;1.13;;;;;;;29.58;40.68;99129.00;5039604;28;20053;-51
2022/10/01 10:13:58;;;;;;;5.05;1.45;;;;;;;29.31;39.67;99134.16;5010864;28;20081;-49
2022/10/01 10:19:09;;;;;;;5.07;2.47;;;;;;;28.89;40.32;99159.41;5028007;28;20408;-47
2022/10/01 10:21:36;;;;;;;5.13;2.88;;;;;;;28.81;41.02;99151.31;5016453;28;20054;-48
2022/10/01 10:24:06;;;;;;;6.53;2.38;;;;;;;28.76;40.08;99166.88;5012746;28;20152;-50
2022/10/01 10:26:38;;;;;;;5.00;2.50;;;;;;;28.50;40.31;99156.84;5012119;28;20085;-48
2022/10/01 10:29:08;;;;;;;7.05;0.75;;;;;;;28.41;40.79;99162.03;5013122;28;20515;-49
2022/10/01 10:31:44;;;;;;;5.90;2.55;;;;;;;28.40;41.18;99157.69;5013750;28;20140;-50
2022/10/01 10:36:47;;;;;;;5.97;1.98;;;;;;;27.68;40.51;99171.19;5051579;27;20416;-50
2022/10/01 10:39:21;;;;;;;8.30;1.73;;;;;;;27.34;39.78;99175.00;5006162;28;20053;-49
2022/10/01 10:41:50;;;;;;;6.78;1.48;;;;;;;27.00;40.51;99167.28;5005279;28;20077;-50
2022/10/01 10:44:20;;;;;;;5.30;1.63;;;;;;;26.65;41.34;99175.44;5010206;28;20485;-49
2022/10/01 10:46:49;;;;;;;4.47;1.40;;;;;;;26.27;41.62;99182.16;5002858;28;20054;-50
2022/10/01 10:49:25;;;;;;;7.15;1.90;;;;;;;25.86;42.08;99180.09;5006579;28;20045;-50
2022/10/01 10:51:52;;;;;;;;;;;;;;;25.39;42.14;99178.44;4996823;28;20046;-47
2022/10/01 10:54:24;;;;;;;11.20;2.85;;;;;;;25.18;42.84;99191.59;4994009;28;19929;-48
2022/10/01 10:56:53;;;;;;;9.40;3.83;;;;;;;24.84;43.38;99194.16;4997566;28;20049;-48
2022/10/01 10:59:19;;;;;;;9.23;2.10;;;;;;;24.53;43.41;99192.03;5005002;28;20049;-47
2022/10/01 11:01:48;;;;;;;7.50;2.40;;;;;;;24.32;44.00;99197.97;4999249;28;20160;-50
2022/10/01 11:04:33;;;;;;;3.78;1.40;;;;;;;24.05;44.50;99204.31;5009548;28;20444;-49
2022/10/01 11:07:00;;;;;;;8.05;2.38;;;;;;;23.78;44.77;99201.88;5001090;28;20045;-47
2022/10/01 11:09:39;;;;;;;3.85;1.45;;;;;;;23.51;44.95;99209.00;5003164;28;20136;-49
2022/10/01 11:37:05;;;;;;;3.50;0.73;;;;;;;21.68;47.37;99248.97;5033924;28;20406;-45
2022/10/01 11:39:33;;;;;;;5.10;1.15;;;;;;;21.63;47.68;99249.28;5010633;28;20442;-46
2022/10/01 11:42:06;;;;;;;6.68;1.52;;;;;;;21.55;48.92;99247.09;5010913;28;20152;-45
2022/10/01 11:44:40;;;;;;;8.27;1.35;;;;;;;21.48;48.83;99255.50;5017506;28;20140;-50
2022/10/01 11:47:15;;;;;;;4.90;1.25;;;;;;;21.44;48.93;99246.91;5017169;28;20053;-49
2022/10/01 12:00:47;;;;;;;13.38;4.63;;;;;;;21.42;49.05;99246.19;5024300;28;20881;-46
2022/10/01 12:03:20;;;;;;;6.18;1.85;;;;;;;21.32;49.18;99252.00;5001958;28;20058;-45
2022/10/01 12:05:48;;;;;;;13.00;3.28;;;;;;;21.22;49.40;99253.50;5002950;28;21104;-48
2022/10/01 12:08:23;;;;;;;6.57;2.13;;;;;;;21.12;49.82;99262.88;5006124;28;20068;-44
2022/10/01 12:13:32;;;;;;;9.77;3.45;;;;;;;21.00;49.46;99260.03;5028531;28;20758;-45
2022/10/01 12:16:13;;;;;;;3.50;1.33;;;;;;;20.86;49.65;99252.94;5013357;28;20060;-44
2022/10/01 12:19:02;;;;;;;4.70;2.38;;;;;;;20.87;49.80;99269.56;5003372;28;20070;-46
2022/10/01 12:21:36;;;;;;;5.78;2.30;;;;;;;20.89;50.30;99270.34;5000786;28;20078;-45
2022/10/01 12:27:19;;;;;;;6.70;1.75;;;;;;;21.04;49.43;99274.72;5040770;27;20396;-50
2022/10/01 12:35:17;;;;;;;5.50;1.08;;;;;;;20.71;50.16;99278.34;5118811;27;20403;-41
2022/10/01 12:41:09;;;;;;;6.85;3.25;;;;;;;20.41;50.39;99279.16;5041230;27;20413;-42
2022/10/01 12:43:52;;;;;;;8.30;2.95;;;;;;;20.31;51.17;99293.75;5020576;28;20045;-42
2022/10/01 12:46:54;;;;;;;3.88;1.30;;;;;;;20.18;51.35;99283.91;5026986;28;20448;-40
2022/10/01 12:52:38;;;;;;;6.13;1.15;;;;;;;19.94;51.35;99294.81;5079172;27;20415;-41
2022/10/01 12:58:50;;;;;;;7.25;1.00;;;;;;;19.95;51.45;99291.25;5078833;27;20406;-43
2022/10/01 13:01:24;;;;;;;;;;;;;;;19.88;51.76;99296.00;5077271;28;20542;-40
2022/10/01 13:09:59;;;;;;;4.03;2.50;;;;;;;19.91;51.11;99290.56;5032333;28;21483;-41
2022/10/01 13:13:07;;;;;;;4.38;1.02;;;;;;;20.00;51.05;99302.38;4994150;28;20081;-44
2022/10/01 13:15:37;;;;;;;4.03;0.88;;;;;;;20.29;51.53;99299.09;5001255;28;20125;-40
2022/10/01 13:31:59;;;;;;;5.28;2.55;;;;;;;20.80;49.56;99314.66;5035712;28;20396;-40
2022/10/01 13:37:16;;;;;;;5.60;1.48;;;;;;;21.02;49.26;99328.41;5032112;28;20909;-42
2022/10/01 13:39:44;;;;;;;2.80;0.70;;;;;;;21.16;49.40;99317.06;5010417;28;20105;-42
2022/10/01 13:42:19;;;;;;;3.30;1.13;;;;;;;21.26;49.09;99323.47;5011113;28;20054;-41
2022/10/01 13:44:52;;;;;;;4.53;0.90;;;;;;;21.34;48.34;99327.44;5027185;28;20599;-45
2022/10/01 13:47:20;;;;;;;2.03;0.68;;;;;;;21.43;48.70;99332.16;5025412;28;20625;-43
2022/10/01 13:49:59;;;;;;;4.32;0.50;;;;;;;21.40;47.74;99333.19;5019955;28;20493;-41
2022/10/01 13:52:26;;;;;;;4.25;1.10;;;;;;;21.39;48.45;99331.50;5019469;28;20081;-42
2022/10/01 13:54:55;;;;;;;6.65;1.15;;;;;;;21.30;48.32;99335.53;5023965;28;20157;-44
2022/10/01 13:57:38;;;;;;;5.28;0.77;;;;;;;21.17;48.70;99337.16;5026963;28;20042;-41
2022/10/01 14:05:42;;;;;;;9.68;2.83;;;;;;;21.09;48.43;99344.66;5050502;27;21180;-41
2022/10/01 14:16:44;;;;;;;15.77;4.80;;;;;;;20.60;49.13;99357.03;5028238;28;20053;-40